Terminal Aerodrome Forecast
Issued by NWS

Home | Current Version | Previous Version | Text Only | Print | Product List | Glossary On
Versions: 1 2 3 4 5 6 7 8 9 10 11 12 13 14 15 16
785
FTUS46 KSTO 051728
TAFSAC
TAF
KSAC 051728Z 0518/0618 32007KT P6SM SCT250
      TEMPO 0518/0519 1SM BR BKN002
     FM061100 32003KT 2SM MIFG BKN002=

USA.gov is the U.S. government's official web portal to all federal, state and local government web resources and services.